Webb, Iowa
Current Conditions -  °F | °C
As of 9:53 PM on Wednesday 26 Nov 2014 (Local Time) from KSPW Reporting Station
Overcast Overcast  
Wind Chill: -3°   Ceiling: 7500
Heat Index: 12°   Visibility: 10mi
Dew Point:   Wind: 14mph
Humidity: 70%   Direction: 340°NNW
Pressure: 30.39"   Gusts: NA
Location:  42.95°N, 95.01°W
Report Text: KSPW 270353Z AUTO 34012KT 10SM SCT016 OVC075 M11/M16 A3039 RMK AO2 SLP316 T11111156 TSNO $
Loading
Personal Weather Stations






























Interactive Weather Map New forecast layout! Learn more

10-Day Weather Forecast

Advertisements
Track Severe Weather on mobile